Time;durP1;ratioP1;P1;durP2;ratioP2;P2;SDS_P1;SDS_P2;PMS_P1;PMS_P2;Temp;Humidity;BMP_temperature;BMP_pressure;BME280_temperature;BME280_humidity;BME280_pressure;Samples;Min_cycle;Max_cycle;Signal;HPM_P1;HPM_P2
2023/05/05 00:01:01;;;;;;;6.53;2.80;;;17.40;82.70;;;-144.05;36.96;56848.84;5020600;28;20048;-80
2023/05/05 00:03:28;;;;;;;5.53;2.95;;;17.40;82.90;;;-144.05;37.20;56844.59;5039685;28;20029;-82
2023/05/05 00:05:54;;;;;;;3.38;2.40;;;17.40;82.80;;;-144.05;37.07;56844.59;5054491;28;20132;-81
2023/05/05 00:08:21;;;;;;;3.90;2.80;;;17.30;83.00;;;-144.05;37.27;56850.97;5059518;28;20017;-80
2023/05/05 00:10:49;;;;;;;4.70;2.33;;;17.30;83.00;;;-144.05;37.29;56872.19;5037810;28;20077;-81
2023/05/05 00:13:17;;;;;;;3.17;2.80;;;17.30;83.40;;;-144.05;37.26;56857.34;5037865;28;20124;-81
2023/05/05 00:15:46;;;;;;;6.35;3.13;;;17.20;83.80;;;-144.05;37.44;56857.34;5038675;28;20115;-82
2023/05/05 00:18:16;;;;;;;4.93;2.63;;;17.10;83.90;;;-144.05;37.59;56836.09;5020423;28;20047;-81
2023/05/05 00:20:45;;;;;;;5.20;2.88;;;17.00;85.30;;;-144.05;37.71;56831.84;5018491;28;20032;-80
2023/05/05 00:23:12;;;;;;;4.57;2.72;;;17.00;85.00;;;-144.05;37.63;56855.22;5036387;28;20056;-80
2023/05/05 00:25:38;;;;;;;4.00;2.92;;;16.90;85.40;;;-144.05;37.84;56844.59;5036135;28;20040;-79
2023/05/05 00:28:04;;;;;;;4.65;2.47;;;16.90;85.40;;;-144.05;37.95;56827.59;5035647;28;20029;-79
2023/05/05 00:30:30;;;;;;;3.05;2.60;;;16.90;86.00;;;-144.05;38.17;56844.59;5017613;28;20047;-79
2023/05/05 00:32:56;;;;;;;4.18;2.63;;;16.90;86.20;;;-144.05;38.06;56848.84;5035418;28;20490;-79
2023/05/05 00:35:22;;;;;;;4.43;2.60;;;16.80;86.20;;;-144.05;38.13;56831.84;5017527;28;20485;-81
2023/05/05 00:37:48;;;;;;;7.22;3.13;;;16.80;86.30;;;-144.05;38.18;56836.09;5017968;28;20028;-80
2023/05/05 00:40:16;;;;;;;5.13;2.78;;;16.80;86.50;;;-144.05;38.24;56840.34;5016960;28;20113;-79
2023/05/05 00:42:51;;;;;;;4.07;2.50;;;16.80;86.90;;;-144.05;38.31;56838.22;5034652;28;20049;-79
2023/05/05 00:45:19;;;;;;;4.93;2.80;;;16.80;87.30;;;-144.05;38.34;56857.34;5035031;28;20073;-79
2023/05/05 00:47:52;;;;;;;4.25;2.25;;;16.80;87.50;;;-144.05;38.36;56855.22;5035111;28;20048;-79
2023/05/05 00:50:28;;;;;;;5.30;2.60;;;16.80;88.60;;;-144.05;38.60;56853.09;5016986;28;20274;-80
2023/05/05 00:53:04;;;;;;;4.93;2.80;;;16.80;88.20;;;-144.05;38.51;56833.97;5034516;28;20021;-80
2023/05/05 00:55:33;;;;;;;3.65;2.80;;;16.80;88.20;;;-144.05;38.32;56840.34;5034653;28;20041;-79
2023/05/05 00:58:04;;;;;;;3.75;2.58;;;16.80;88.00;;;-144.05;38.44;56823.34;5033595;28;20053;-80
2023/05/05 01:00:30;;;;;;;5.70;2.63;;;16.80;88.00;;;-144.05;38.55;56838.22;5034787;28;20021;-81
2023/05/05 01:02:56;;;;;;;5.80;2.60;;;16.80;88.50;;;-144.05;38.61;56855.22;5035277;28;20029;-79
2023/05/05 01:05:26;;;;;;;4.07;2.33;;;16.80;89.30;;;-144.05;38.56;56823.34;5034138;28;20075;-81
2023/05/05 01:08:27;;;;;;;3.33;2.72;;;16.80;89.20;;;-144.05;38.79;56840.34;5035781;28;20120;-80
2023/05/05 01:11:11;;;;;;;4.35;2.67;;;16.80;89.60;;;-144.05;38.80;56840.34;4965172;28;20047;-81
2023/05/05 01:14:15;;;;;;;4.80;2.53;;;16.80;89.60;;;-144.05;38.70;56855.22;5036519;28;20482;-79
2023/05/05 01:17:12;;;;;;;4.28;2.80;;;16.80;89.70;;;-144.05;38.92;56842.47;5019089;28;20095;-81
2023/05/05 01:20:19;;;;;;;7.38;2.78;;;16.80;90.30;;;-144.05;39.46;56846.72;5036513;28;20018;-80
2023/05/05 01:22:56;;;;;;;3.40;2.60;;;16.80;90.40;;;-144.05;39.20;56861.56;5036153;28;20099;-81
2023/05/05 01:26:01;;;;;;;4.18;2.70;;;16.80;90.50;;;-144.05;39.26;56825.47;5036805;28;20033;-81
2023/05/05 01:28:37;;;;;;;6.32;2.60;;;16.80;90.90;;;-144.05;39.26;56853.09;5036705;28;20091;-79
2023/05/05 01:31:50;;;;;;;7.38;3.15;;;16.80;90.90;;;-144.05;39.40;56842.47;5018552;28;20057;-80
2023/05/05 01:34:34;;;;;;;3.35;2.45;;;16.90;91.10;;;-144.05;39.75;56833.97;5036167;28;20494;-80
2023/05/05 01:37:21;;;;;;;5.60;2.83;;;16.90;91.70;;;-144.05;39.59;56850.97;5018632;28;20132;-80
2023/05/05 01:39:58;;;;;;;5.03;3.08;;;16.90;91.50;;;-144.05;39.51;56833.97;5036690;28;20132;-80
2023/05/05 01:42:29;;;;;;;4.40;2.55;;;16.90;91.70;;;-144.05;39.46;56833.97;5036388;28;20057;-81
2023/05/05 01:44:57;;;;;;;2.83;2.53;;;16.90;91.90;;;-144.05;39.50;56829.72;5036059;28;20041;-80
2023/05/05 01:47:25;;;;;;;2.53;2.30;;;16.80;92.30;;;-144.05;40.04;56846.72;5036236;28;20053;-80
2023/05/05 01:49:52;;;;;;;7.28;2.83;;;16.80;92.60;;;-144.05;40.20;56857.34;5036916;28;20037;-81
2023/05/05 01:52:21;;;;;;;3.88;3.15;;;16.80;93.10;;;-144.05;40.30;56848.84;5017750;28;20025;-79
2023/05/05 01:54:50;;;;;;;3.75;2.70;;;16.80;93.50;;;-144.05;40.25;56844.59;5035849;28;20085;-80
2023/05/05 01:57:20;;;;;;;6.22;2.92;;;16.90;93.40;;;-144.05;40.27;56865.81;5017744;28;20462;-78
2023/05/05 01:59:47;;;;;;;5.65;3.00;;;17.00;93.40;;;-144.05;40.22;56838.22;5018470;28;20143;-79
2023/05/05 02:02:17;;;;;;;4.38;2.88;;;17.00;93.70;;;-144.05;40.11;56833.97;5036139;28;20036;-81
2023/05/05 02:04:45;;;;;;;5.10;3.00;;;17.00;93.50;;;-144.05;40.20;56848.84;5035982;28;20033;-80
2023/05/05 02:07:14;;;;;;;9.55;3.20;;;17.10;93.80;;;-144.05;40.31;56872.19;5051183;28;20029;-79
2023/05/05 02:09:43;;;;;;;5.15;2.65;;;17.10;93.60;;;-144.05;40.43;56853.09;5045781;28;20033;-80
2023/05/05 02:12:11;;;;;;;4.60;3.17;;;17.10;93.90;;;-144.05;40.29;56842.47;5034819;28;20022;-80
2023/05/05 02:14:42;;;;;;;5.93;3.05;;;17.20;93.90;;;-144.05;40.16;56844.59;5016781;28;20135;-81
2023/05/05 02:17:12;;;;;;;4.32;2.42;;;17.20;94.00;;;-144.05;40.62;56842.47;5033910;28;20120;-80
2023/05/05 02:19:44;;;;;;;4.40;3.00;;;17.20;94.30;;;-144.05;40.41;56831.84;5034493;28;20033;-79
2023/05/05 02:22:11;;;;;;;6.85;3.42;;;17.10;94.20;;;-144.05;40.31;56827.59;5034021;28;20120;-81
2023/05/05 02:24:37;;;;;;;6.05;2.72;;;17.20;94.50;;;-144.05;40.73;56863.69;5017112;28;20121;-81
2023/05/05 02:27:08;;;;;;;6.85;3.40;;;17.20;95.00;;;-144.05;40.92;56831.84;5034574;28;20037;-80
2023/05/05 02:29:56;;;;;;;6.00;3.05;;;17.10;95.40;;;-144.05;41.15;56829.72;5034372;28;20040;-80
2023/05/05 02:32:34;;;;;;;5.80;2.85;;;17.20;95.60;;;-144.05;41.37;56838.22;5015323;28;20033;-81
2023/05/05 02:35:17;;;;;;;4.95;2.90;;;17.10;96.70;;;-144.05;41.89;56829.72;5016296;28;20029;-80
2023/05/05 02:37:54;;;;;;;4.10;3.10;;;17.00;97.60;;;-144.05;42.07;56857.34;5035436;28;20060;-80
2023/05/05 02:40:27;;;;;;;3.83;3.20;;;17.00;98.30;;;-144.05;42.43;56842.47;5016789;28;20094;-81
2023/05/05 02:43:02;;;;;;;6.47;3.25;;;17.00;99.10;;;-144.05;42.45;56833.97;5032514;28;20033;-80
2023/05/05 02:45:28;;;;;;;4.57;3.95;;;17.00;99.90;;;-144.05;43.14;56823.34;5032780;28;20421;-81
2023/05/05 02:47:54;;;;;;;4.40;3.25;;;16.90;99.90;;;-144.05;43.58;56833.97;5032703;28;20037;-81
2023/05/05 02:50:19;;;;;;;5.05;3.42;;;16.90;99.90;;;-144.05;43.77;56821.22;5014646;28;20037;-81
2023/05/05 02:52:47;;;;;;;7.13;3.65;;;16.80;99.90;;;-144.05;44.31;56850.97;5032468;28;20071;-79
2023/05/05 02:55:14;;;;;;;7.75;3.65;;;16.70;99.90;;;-144.05;45.01;56846.72;5031968;28;20033;-79
2023/05/05 02:58:20;;;;;;;8.23;4.38;;;16.70;99.90;;;-144.05;45.54;56850.97;5014172;28;20108;-80
2023/05/05 03:02:16;;;;;;;6.95;3.80;;;16.60;99.90;;;-144.05;45.96;56850.97;5034484;28;20029;-82
2023/05/05 03:05:08;;;;;;;7.05;4.28;;;16.60;99.90;;;-144.05;46.47;56848.84;4953672;29;20066;-80
2023/05/05 03:07:48;;;;;;;7.20;4.78;;;16.50;99.90;;;-144.05;47.24;56831.84;4937869;29;20031;-83
2023/05/05 03:10:27;;;;;;;7.45;4.60;;;16.40;99.90;;;-144.05;47.57;56850.97;5016319;28;20061;-79
2023/05/05 03:12:59;;;;;;;6.75;4.72;;;16.30;99.90;;;-144.05;48.46;56840.34;5034690;28;20045;-81
2023/05/05 03:15:34;;;;;;;8.98;4.95;;;16.30;99.90;;;-144.05;48.66;56831.84;5016795;28;20040;-81
2023/05/05 03:18:03;;;;;;;6.88;5.07;;;16.30;99.90;;;-144.05;49.05;56844.59;5034364;28;20075;-80
2023/05/05 03:20:30;;;;;;;6.57;4.85;;;16.30;99.90;;;-144.05;49.07;56840.34;5033988;28;20022;-81
2023/05/05 03:22:56;;;;;;;10.18;5.13;;;16.20;99.90;;;-144.05;49.60;56829.72;5034737;28;20471;-83
2023/05/05 03:25:40;;;;;;;7.97;5.38;;;16.20;99.90;;;-144.05;50.34;56827.59;5035034;28;20037;-82
2023/05/05 03:28:06;;;;;;;11.02;6.50;;;16.10;99.90;;;-144.05;50.98;56857.34;5016969;28;20350;-82
2023/05/05 03:30:31;;;;;;;12.48;7.05;;;16.20;99.90;;;-144.05;50.98;56838.22;5049737;28;20032;-80
2023/05/05 03:32:57;;;;;;;9.82;5.90;;;16.20;99.90;;;-144.05;50.64;56810.59;5046541;28;20044;-81
2023/05/05 03:35:23;;;;;;;8.95;6.65;;;16.30;99.90;;;-144.05;51.21;56831.84;5032774;28;20021;-81
2023/05/05 03:37:49;;;;;;;10.35;6.95;;;16.30;99.90;;;-144.05;51.40;56840.34;5032331;28;20025;-81
2023/05/05 03:40:15;;;;;;;12.52;7.35;;;16.30;99.90;;;-144.05;51.77;56827.59;5032291;28;20512;-81
2023/05/05 03:42:41;;;;;;;9.80;7.40;;;16.30;99.90;;;-144.05;51.93;56857.34;5032249;28;20033;-82
2023/05/05 03:45:07;;;;;;;12.27;7.38;;;16.20;99.90;;;-144.05;52.25;56844.59;5015054;28;20369;-80
2023/05/05 03:47:33;;;;;;;9.32;6.75;;;16.20;99.90;;;-144.05;52.53;56838.22;5015560;28;20041;-79
2023/05/05 03:49:59;;;;;;;11.38;6.72;;;16.10;99.90;;;-144.05;53.01;56825.47;5017489;28;20084;-81
2023/05/05 03:52:25;;;;;;;13.30;7.65;;;16.00;99.90;;;-144.05;53.53;56844.59;5016769;28;20446;-82
2023/05/05 03:54:53;;;;;;;11.70;7.35;;;16.00;99.90;;;-144.05;53.64;56836.09;5034505;28;20100;-80
2023/05/05 03:57:18;;;;;;;11.40;7.75;;;15.90;99.90;;;-144.05;54.08;56848.84;5036834;28;20405;-82
2023/05/05 03:59:44;;;;;;;11.82;7.78;;;15.90;99.90;;;-144.05;54.32;56838.22;5041044;28;20105;-83
2023/05/05 04:02:10;;;;;;;12.07;8.23;;;15.90;99.90;;;-144.05;54.50;56850.97;5018316;28;20223;-82
2023/05/05 04:04:36;;;;;;;13.40;8.20;;;15.90;99.90;;;-144.05;55.11;56829.72;5037191;28;20103;-83
2023/05/05 04:07:02;;;;;;;17.33;8.65;;;15.80;99.90;;;-144.05;55.82;56850.97;5040821;28;20029;-81
2023/05/05 04:09:28;;;;;;;16.70;9.10;;;15.90;99.90;;;-144.05;55.65;56831.84;5054076;28;20132;-80
2023/05/05 04:11:53;;;;;;;17.40;9.40;;;15.90;99.90;;;-144.05;55.86;56846.72;5032208;28;20397;-81
2023/05/05 04:14:20;;;;;;;12.25;8.32;;;15.80;99.90;;;-144.05;55.93;56827.59;5013479;28;20030;-79
2023/05/05 04:16:46;;;;;;;12.48;9.30;;;15.70;99.90;;;-144.05;56.65;56821.22;5031205;28;20025;-83
2023/05/05 04:19:12;;;;;;;14.32;9.77;;;15.70;99.90;;;-144.05;57.17;56840.34;5033300;28;20025;-80
2023/05/05 04:21:38;;;;;;;13.85;10.32;;;15.60;99.90;;;-144.05;57.07;56831.84;5033658;28;20022;-81
2023/05/05 04:24:05;;;;;;;13.70;10.27;;;15.50;99.90;;;-144.05;57.37;56823.34;5033172;28;20032;-81
2023/05/05 04:26:31;;;;;;;15.15;10.13;;;15.50;99.90;;;-144.05;57.57;56827.59;5036189;28;20029;-82
2023/05/05 04:28:56;;;;;;;12.65;10.15;;;15.40;99.90;;;-144.05;57.66;56838.22;5036458;28;20486;-82
2023/05/05 04:31:22;;;;;;;17.85;10.38;;;15.40;99.90;;;-144.05;58.19;56833.97;5038784;28;20029;-81
2023/05/05 04:33:48;;;;;;;15.93;10.50;;;15.30;99.90;;;-144.05;59.04;56829.72;5021661;28;20041;-81
2023/05/05 04:36:14;;;;;;;18.70;10.93;;;15.30;99.90;;;-144.05;59.40;56848.84;5040968;28;20040;-80
2023/05/05 04:38:40;;;;;;;16.98;11.15;;;15.30;99.90;;;-144.05;59.03;56831.84;5038221;28;20022;-80
2023/05/05 04:41:06;;;;;;;16.63;11.30;;;15.40;99.90;;;-144.05;58.65;56831.84;5039193;28;20053;-83
2023/05/05 04:43:32;;;;;;;16.30;10.73;;;15.50;99.90;;;-144.05;58.27;56844.59;5040039;28;20059;-82
2023/05/05 04:45:58;;;;;;;18.83;11.50;;;15.60;99.90;;;-144.05;58.33;56840.34;5037159;28;20151;-81
2023/05/05 04:48:23;;;;;;;19.42;11.50;;;15.60;99.90;;;-144.05;58.36;56819.09;5035833;28;20479;-82
2023/05/05 04:50:50;;;;;;;15.38;10.93;;;15.70;99.90;;;-144.05;58.12;56827.59;5037810;28;20041;-81
2023/05/05 04:53:16;;;;;;;14.15;11.15;;;15.70;99.90;;;-144.05;58.37;56823.34;5036248;28;20030;-81
2023/05/05 04:55:41;;;;;;;22.67;11.77;;;15.80;99.90;;;-144.05;58.05;56855.22;5037570;28;20460;-81
2023/05/05 04:58:07;;;;;;;14.48;10.75;;;15.80;99.90;;;-144.05;58.13;56829.72;5037004;28;20056;-83
2023/05/05 05:00:36;;;;;;;13.80;11.15;;;15.90;99.90;;;-144.05;58.10;56821.22;5038191;28;20072;-81
2023/05/05 05:03:03;;;;;;;19.92;11.25;;;16.00;99.90;;;-144.05;57.72;56831.84;5038307;28;20081;-81
2023/05/05 05:05:29;;;;;;;15.70;10.65;;;16.00;99.90;;;-144.05;57.42;56825.47;5038244;28;20496;-79
2023/05/05 05:07:55;;;;;;;15.98;11.57;;;16.00;99.90;;;-144.05;57.30;56833.97;5037987;28;20125;-80
2023/05/05 05:10:21;;;;;;;17.17;10.90;;;16.10;99.90;;;-144.05;57.22;56840.34;5038810;28;20030;-80
2023/05/05 05:12:48;;;;;;;17.25;11.48;;;16.20;99.90;;;-144.05;56.83;56823.34;5037815;28;20022;-79
2023/05/05 05:15:14;;;;;;;19.88;11.77;;;16.20;99.90;;;-144.05;56.91;56840.34;5019728;28;20098;-80
2023/05/05 05:17:39;;;;;;;17.13;11.20;;;16.20;99.90;;;-144.05;57.09;56844.59;5038598;28;20040;-81
2023/05/05 05:20:07;;;;;;;16.45;11.57;;;16.20;99.90;;;-144.05;57.14;56827.59;5038446;28;20389;-80
2023/05/05 05:22:33;;;;;;;14.68;11.88;;;16.10;99.90;;;-144.05;57.18;56819.09;5040215;28;20030;-83
2023/05/05 05:24:59;;;;;;;17.58;12.93;;;16.10;99.90;;;-144.05;57.55;56836.09;5039982;28;20029;-82
2023/05/05 05:27:25;;;;;;;17.08;12.35;;;16.10;99.90;;;-144.05;57.63;56840.34;5022155;28;20112;-82
2023/05/05 05:29:51;;;;;;;16.10;12.27;;;16.10;99.90;;;-144.05;57.64;56846.72;5021087;28;20049;-82
2023/05/05 05:32:17;;;;;;;20.38;13.20;;;16.10;99.90;;;-144.05;57.50;56846.72;5038429;28;20056;-81
2023/05/05 05:34:42;;;;;;;19.67;13.35;;;16.20;99.90;;;-144.05;57.27;56844.59;5019822;28;20029;-79
2023/05/05 05:37:08;;;;;;;20.13;13.57;;;16.20;99.90;;;-144.05;56.63;56863.69;5041531;28;20033;-82
2023/05/05 05:39:35;;;;;;;18.00;13.95;;;16.30;99.90;;;-144.05;56.74;56846.72;5040454;28;20485;-80
2023/05/05 05:42:01;;;;;;;17.65;12.50;;;16.40;99.90;;;-144.05;56.76;56846.72;5039807;28;20060;-81
2023/05/05 05:44:27;;;;;;;21.70;13.88;;;16.60;99.90;;;-144.05;55.90;56825.47;5038294;28;20037;-82
2023/05/05 05:46:53;;;;;;;19.00;13.60;;;16.70;99.90;;;-144.05;55.89;56825.47;5039545;28;20029;-83
2023/05/05 05:49:19;;;;;;;17.98;12.95;;;16.70;99.90;;;-144.05;55.75;56859.47;5038602;28;20029;-81
2023/05/05 05:51:44;;;;;;;17.00;13.23;;;16.80;99.90;;;-144.05;55.50;56859.47;5022019;28;20048;-80
2023/05/05 05:54:10;;;;;;;19.70;13.43;;;16.80;99.90;;;-144.05;55.43;56844.59;5040522;28;20037;-81
2023/05/05 05:56:36;;;;;;;17.10;12.65;;;16.90;99.90;;;-144.05;55.63;56842.47;5040669;28;20036;-83
2023/05/05 05:59:03;;;;;;;20.92;13.63;;;17.00;99.90;;;-144.05;55.21;56833.97;5040324;28;20504;-86
2023/05/05 06:01:29;;;;;;;19.27;13.18;;;17.00;99.90;;;-144.05;55.06;56867.94;5041145;28;20112;-82
2023/05/05 06:03:55;;;;;;;21.25;13.20;;;17.00;99.90;;;-144.05;54.83;56836.09;5042173;28;20029;-83
2023/05/05 06:06:21;;;;;;;22.95;15.05;;;17.00;99.90;;;-144.05;54.88;56831.84;5040974;28;20477;-84
2023/05/05 06:08:47;;;;;;;17.67;13.50;;;17.10;99.90;;;-144.05;54.98;56816.97;5048773;28;20025;-82
2023/05/05 06:11:12;;;;;;;20.63;13.65;;;17.10;99.90;;;-144.05;54.15;56825.47;5024860;28;20106;-84
2023/05/05 06:13:38;;;;;;;17.40;12.68;;;17.30;99.90;;;-144.05;54.17;56823.34;5039352;28;20053;-82
2023/05/05 06:16:05;;;;;;;20.88;13.68;;;17.40;99.90;;;-144.05;53.69;56842.47;5039482;28;20026;-83
2023/05/05 06:18:30;;;;;;;17.63;13.27;;;17.50;99.90;;;-144.05;53.30;56861.56;5021980;28;20486;-82
2023/05/05 06:20:56;;;;;;;19.60;13.73;;;17.60;99.90;;;-144.05;52.80;56831.84;5039541;28;20079;-79
2023/05/05 06:23:22;;;;;;;17.83;13.48;;;17.60;99.90;;;-144.05;53.02;56850.97;5021781;28;20025;-81
2023/05/05 06:25:48;;;;;;;18.05;13.07;;;17.60;99.90;;;-144.05;53.17;56838.22;5039644;28;20034;-81
2023/05/05 06:28:14;;;;;;;16.60;12.98;;;17.60;99.90;;;-144.05;52.44;56850.97;5039088;28;20088;-83
2023/05/05 06:30:40;;;;;;;17.98;12.75;;;17.80;99.90;;;-144.05;52.01;56850.97;5021281;28;20037;-82
2023/05/05 06:33:05;;;;;;;16.42;11.90;;;18.10;99.90;;;-144.05;51.42;56870.06;5039658;28;20034;-81
2023/05/05 06:35:31;;;;;;;18.77;12.57;;;18.30;99.90;;;-144.05;51.03;56850.97;5039116;28;20111;-79
2023/05/05 06:37:57;;;;;;;20.80;12.75;;;18.60;99.90;;;-144.05;49.17;56846.72;5021660;28;20386;-82
2023/05/05 06:40:23;;;;;;;19.23;12.23;;;18.70;99.90;;;-144.05;48.98;56859.47;5039786;28;20024;-82
2023/05/05 06:42:49;;;;;;;18.38;12.05;;;18.70;99.90;;;-144.05;48.82;56865.81;5040352;28;20037;-85
2023/05/05 06:45:15;;;;;;;17.92;12.20;;;18.70;99.90;;;-144.05;48.80;56848.84;5040669;28;20033;-83
2023/05/05 06:47:41;;;;;;;16.10;10.80;;;18.80;99.90;;;-144.05;47.74;56870.06;5040867;28;20112;-82
2023/05/05 06:50:08;;;;;;;14.00;10.77;;;18.80;99.90;;;-144.05;48.08;56872.19;5042095;28;20025;-83
2023/05/05 06:52:33;;;;;;;16.17;10.05;;;18.80;99.90;;;-144.05;48.02;56865.81;5032591;28;20084;-82
2023/05/05 06:54:59;;;;;;;16.02;10.50;;;18.90;99.90;;;-144.05;47.87;56865.81;5025090;28;20026;-82
2023/05/05 06:57:25;;;;;;;14.80;9.93;;;19.00;99.90;;;-144.05;47.41;56848.84;5021361;28;20060;-82
2023/05/05 06:59:52;;;;;;;14.43;10.10;;;19.00;99.90;;;-144.05;46.53;56844.59;5040019;28;20041;-81
2023/05/05 07:02:18;;;;;;;14.82;8.95;;;19.20;99.90;;;-144.05;45.60;56848.84;5040154;28;20052;-80
2023/05/05 07:04:44;;;;;;;14.65;9.82;;;19.40;99.90;;;-144.05;44.94;56855.22;5037973;28;20181;-80
2023/05/05 07:07:10;;;;;;;14.27;9.90;;;19.80;99.90;;;-144.05;44.40;56874.31;5019696;28;20053;-80
2023/05/05 07:09:36;;;;;;;11.65;8.27;;;20.00;99.90;;;-144.05;43.08;56880.69;5040583;28;20033;-82
2023/05/05 07:12:02;;;;;;;10.48;8.43;;;20.40;99.90;;;-144.05;43.07;56863.69;5043421;28;20126;-81
2023/05/05 07:14:28;;;;;;;12.90;8.30;;;20.40;99.90;;;-144.05;43.10;56887.06;5040738;28;20030;-82
2023/05/05 07:16:55;;;;;;;11.55;8.23;;;20.80;99.90;;;-144.05;41.94;56889.19;5023792;28;20045;-81
2023/05/05 07:19:22;;;;;;;13.77;8.38;;;21.00;99.90;;;-144.05;41.57;56904.06;5041111;28;20079;-83
2023/05/05 07:21:48;;;;;;;10.73;7.55;;;20.70;99.90;;;-144.05;42.59;56889.19;5043571;28;20025;-82
2023/05/05 07:24:13;;;;;;;10.45;7.38;;;20.70;99.90;;;-144.05;42.37;56880.69;5039616;28;20086;-82
2023/05/05 07:26:39;;;;;;;10.40;7.55;;;20.80;99.90;;;-144.05;42.29;56884.94;5039750;28;20026;-81
2023/05/05 07:29:06;;;;;;;11.55;8.35;;;20.60;99.90;;;-144.05;41.81;56878.56;5037055;28;20034;-81
2023/05/05 07:31:31;;;;;;;11.02;7.63;;;20.50;99.90;;;-144.05;42.12;56870.06;5038583;28;20516;-80
2023/05/05 07:33:57;;;;;;;15.60;7.57;;;20.50;99.90;;;-144.05;41.61;56870.06;5039005;28;20061;-81
2023/05/05 07:36:23;;;;;;;9.45;7.57;;;20.60;99.90;;;-144.05;41.86;56882.81;5038709;28;20136;-80
2023/05/05 07:38:49;;;;;;;11.80;7.13;;;20.70;99.90;;;-144.05;41.64;56895.56;5039406;28;20032;-79
2023/05/05 07:41:15;;;;;;;10.77;7.35;;;21.00;99.90;;;-144.05;41.29;56891.31;5038298;28;20447;-81
2023/05/05 07:43:41;;;;;;;12.80;8.60;;;21.20;99.90;;;-144.05;40.72;56912.56;5020696;28;20034;-83
2023/05/05 07:46:07;;;;;;;15.95;8.27;;;21.20;99.90;;;-144.05;40.77;56914.69;5036797;28;20374;-83
2023/05/05 07:48:33;;;;;;;11.43;7.97;;;21.20;99.90;;;-144.05;41.09;56927.41;5035651;28;20105;-82
2023/05/05 07:50:59;;;;;;;13.18;8.00;;;21.00;99.90;;;-144.05;41.10;56904.06;5035705;28;20033;-82
2023/05/05 07:53:25;;;;;;;10.30;6.82;;;21.00;99.90;;;-144.05;41.60;56887.06;5037154;28;20131;-83
2023/05/05 07:55:51;;;;;;;10.40;8.38;;;20.80;99.90;;;-144.05;41.29;56874.31;5036932;28;20029;-84
2023/05/05 07:58:17;;;;;;;11.57;7.55;;;20.80;99.90;;;-144.05;41.84;56887.06;5038393;28;20433;-83
2023/05/05 08:00:43;;;;;;;9.60;7.22;;;20.80;99.90;;;-144.05;41.11;56895.56;5038230;28;20029;-82
2023/05/05 08:03:09;;;;;;;7.75;5.95;;;20.90;99.90;;;-144.05;40.81;56910.44;5020877;28;20033;-84
2023/05/05 08:05:35;;;;;;;9.32;6.65;;;21.10;99.90;;;-144.05;39.65;56914.69;5021733;28;20030;-81
2023/05/05 08:08:02;;;;;;;9.75;6.10;;;21.50;99.90;;;-144.05;39.08;56910.44;5036865;28;20044;-81
2023/05/05 08:10:28;;;;;;;10.38;7.10;;;21.90;99.90;;;-144.05;39.17;56904.06;5021463;28;20037;-83
2023/05/05 08:12:54;;;;;;;9.23;6.57;;;21.70;99.90;;;-144.05;39.66;56910.44;5018467;28;20037;-81
2023/05/05 08:15:20;;;;;;;9.30;6.13;;;21.70;99.90;;;-144.05;38.62;56908.31;5037767;28;20033;-80
2023/05/05 08:17:54;;;;;;;12.70;6.60;;;21.90;99.90;;;-144.05;38.23;56916.81;5038324;28;20093;-82
2023/05/05 08:20:20;;;;;;;8.60;5.40;;;22.20;99.90;;;-144.05;38.73;56927.41;5038769;28;20482;-82
2023/05/05 08:22:48;;;;;;;9.00;5.45;;;22.40;99.90;;;-144.05;37.49;56935.91;5038087;28;20066;-80
2023/05/05 08:25:14;;;;;;;9.45;6.43;;;22.40;99.90;;;-144.05;37.67;56895.56;5038224;28;20029;-80
2023/05/05 08:27:42;;;;;;;9.75;5.63;;;22.10;99.90;;;-144.05;38.50;56918.94;5036733;28;20394;-81
2023/05/05 08:30:10;;;;;;;11.25;5.90;;;22.00;99.90;;;-144.05;39.27;56933.78;5036922;28;20033;-82
2023/05/05 08:32:37;;;;;;;11.05;6.63;;;22.00;99.90;;;-144.05;37.89;56933.78;5036644;28;20044;-82
2023/05/05 08:35:05;;;;;;;9.50;6.57;;;22.10;99.90;;;-144.05;38.41;56918.94;5037771;28;20386;-82
2023/05/05 08:37:31;;;;;;;8.77;5.70;;;21.80;99.90;;;-144.05;38.25;56925.28;5020878;28;20029;-83
2023/05/05 08:39:57;;;;;;;9.77;5.15;;;22.00;99.90;;;-144.05;38.43;56929.53;5040363;28;20021;-82
2023/05/05 08:42:23;;;;;;;6.95;5.65;;;22.30;99.90;;;-144.05;37.53;56925.28;5038066;28;20017;-79
2023/05/05 08:44:50;;;;;;;7.88;5.82;;;22.40;99.90;;;-144.05;37.70;56927.41;5038687;28;20029;-81
2023/05/05 08:47:16;;;;;;;7.75;4.70;;;22.20;99.90;;;-144.05;38.51;56914.69;5038752;28;20025;-85
2023/05/05 08:49:46;;;;;;;9.77;5.55;;;22.10;99.90;;;-144.05;37.57;56918.94;5038717;28;20122;-85
2023/05/05 08:52:22;;;;;;;9.82;5.78;;;22.30;99.90;;;-144.05;36.80;56933.78;5039800;28;20029;-82
2023/05/05 08:55:11;;;;;;;8.40;5.32;;;22.60;99.90;;;-144.05;36.85;56918.94;5039056;28;20034;-80
2023/05/05 08:57:55;;;;;;;11.43;5.82;;;22.70;99.90;;;-144.05;36.09;56931.66;5021017;28;20036;-83
2023/05/05 09:00:23;;;;;;;6.78;4.57;;;23.00;99.90;;;-144.05;36.33;56950.78;5039252;28;20117;-83
2023/05/05 09:02:49;;;;;;;8.55;5.20;;;23.20;99.90;;;-144.05;35.61;56976.28;5020893;28;20018;-84
2023/05/05 09:05:16;;;;;;;6.20;4.75;;;23.40;99.90;;;-144.05;35.40;56967.78;5038685;28;20037;-81
2023/05/05 09:07:43;;;;;;;8.68;5.70;;;23.60;99.90;;;-144.05;34.87;56948.66;5020998;28;20033;-81
2023/05/05 09:10:11;;;;;;;7.60;4.97;;;23.90;98.50;;;-144.05;34.17;56955.03;5038873;28;20021;-82
2023/05/05 09:12:41;;;;;;;7.85;5.80;;;23.80;98.40;;;-144.05;35.12;56980.53;5038481;28;20026;-83
2023/05/05 09:15:13;;;;;;;8.90;5.82;;;23.80;99.90;;;-144.05;34.40;56967.78;5039429;28;20104;-83
2023/05/05 09:17:41;;;;;;;8.23;4.72;;;23.80;97.70;;;-144.05;34.53;56974.16;5038658;28;20025;-83
2023/05/05 09:20:10;;;;;;;8.98;4.88;;;24.00;97.90;;;-144.05;34.44;56974.16;5039234;28;20428;-81
2023/05/05 09:22:44;;;;;;;6.97;4.90;;;24.20;97.50;;;-144.05;33.30;56993.25;5038964;28;20128;-82
2023/05/05 09:25:15;;;;;;;10.70;4.20;;;24.30;95.40;;;-144.05;33.93;56984.78;5039257;28;20557;-83
2023/05/05 09:27:48;;;;;;;6.25;3.83;;;24.50;96.20;;;-144.05;33.26;56989.00;5039397;28;20048;-83
2023/05/05 09:30:22;;;;;;;8.57;4.47;;;24.50;94.40;;;-144.05;33.96;57008.13;5038777;28;20140;-83
2023/05/05 09:32:53;;;;;;;8.90;5.20;;;24.60;95.70;;;-144.05;33.15;56991.13;5051726;22;20061;-76
2023/05/05 09:35:22;;;;;;;7.90;4.38;;;24.50;93.50;;;-144.05;33.62;56993.25;5017550;28;20497;-78
2023/05/05 09:37:47;;;;;;;8.75;5.40;;;24.90;94.70;;;-144.05;34.19;57029.38;5041077;28;20563;-78
2023/05/05 09:40:18;;;;;;;9.60;4.82;;;24.80;94.80;;;-144.05;34.00;56982.66;5036329;28;20029;-78
2023/05/05 09:42:45;;;;;;;8.75;4.50;;;24.80;94.10;;;-144.05;33.33;57016.63;5053312;28;20026;-78
2023/05/05 09:47:38;;;;;;;5.35;3.38;;;24.90;93.40;;;-144.05;32.07;56989.00;5027056;28;20046;-82
2023/05/05 09:50:05;;;;;;;7.00;4.10;;;24.90;90.40;;;-144.05;33.01;56980.53;5033144;28;20108;-84
2023/05/05 09:52:31;;;;;;;6.20;3.53;;;24.50;91.60;;;-144.05;33.51;56993.25;5021215;28;20045;-82
2023/05/05 09:54:57;;;;;;;5.93;3.60;;;24.50;92.60;;;-144.05;34.11;57029.38;5024351;28;20378;-84
2023/05/05 09:57:32;;;;;;;7.75;4.15;;;24.60;93.40;;;-144.05;34.27;56976.28;5023509;28;20112;-82
2023/05/05 10:00:03;;;;;;;6.18;4.25;;;24.30;93.70;;;-144.05;33.77;56963.53;5000735;28;20026;-81
2023/05/05 10:02:36;;;;;;;5.90;4.47;;;24.40;92.70;;;-144.05;33.22;56974.16;5019820;28;20025;-82
2023/05/05 10:05:12;;;;;;;8.52;3.83;;;24.50;92.00;;;-144.05;33.15;57003.88;5021253;28;20056;-82
2023/05/05 10:07:41;;;;;;;3.78;2.80;;;24.80;91.90;;;-144.05;33.72;57001.75;5003955;28;20113;-81
2023/05/05 10:10:15;;;;;;;4.30;2.90;;;24.90;92.80;;;-144.05;33.04;57008.13;5025084;28;20136;-83
2023/05/05 10:12:42;;;;;;;5.07;3.03;;;25.10;91.30;;;-144.05;33.69;57020.88;5008177;28;20025;-80